Time;durP1;ratioP1;P1;durP2;ratioP2;P2;SDS_P1;SDS_P2;PMS_P1;PMS_P2;Temp;Humidity;BMP_temperature;BMP_pressure;BME280_temperature;BME280_humidity;BME280_pressure;Samples;Min_cycle;Max_cycle;Signal;HPM_P1;HPM_P2
2021/07/05 00:02:17;;;;;;;15.38;8.75;;;;;;;18.11;85.77;100098.86;1663848;83;26117;-76
2021/07/05 00:04:45;;;;;;;40.70;11.68;;;;;;;18.05;85.78;100096.58;1706731;83;25321;-76
2021/07/05 00:07:12;;;;;;;17.12;11.88;;;;;;;17.99;86.02;100094.87;1672360;83;26337;-76
2021/07/05 00:09:40;;;;;;;40.08;12.53;;;;;;;18.01;86.38;100094.61;1648757;83;25844;-75
2021/07/05 00:12:09;;;;;;;16.50;11.83;;;;;;;18.01;86.55;100095.44;1657328;83;27431;-76
2021/07/05 00:14:36;;;;;;;17.17;12.88;;;;;;;18.00;86.73;100095.70;1707097;82;25984;-76
2021/07/05 00:17:04;;;;;;;14.90;12.58;;;;;;;17.99;86.86;100095.39;1671854;83;25904;-75
2021/07/05 00:19:31;;;;;;;16.35;12.28;;;;;;;17.98;87.00;100089.17;1644970;83;26929;-76
2021/07/05 00:21:58;;;;;;;14.13;12.75;;;;;;;17.99;87.02;100093.52;1660201;83;26087;-77
2021/07/05 00:24:26;;;;;;;14.55;13.05;;;;;;;17.99;87.22;100089.45;1703763;83;27444;-76
2021/07/05 00:26:53;;;;;;;14.03;12.75;;;;;;;18.02;87.31;100097.63;1671638;83;25964;-76
2021/07/05 00:29:20;;;;;;;14.10;12.70;;;;;;;18.03;87.36;100093.30;1651125;83;25842;-76
2021/07/05 00:31:47;;;;;;;13.48;12.00;;;;;;;18.04;87.49;100096.31;1663361;83;26669;-76
2021/07/05 00:34:14;;;;;;;14.28;12.88;;;;;;;18.05;87.57;100095.79;1705253;83;25952;-76
2021/07/05 00:36:41;;;;;;;17.98;13.40;;;;;;;18.05;87.58;100095.79;1651887;82;27427;-77
2021/07/05 00:39:08;;;;;;;13.68;12.05;;;;;;;18.04;87.75;100099.02;1646898;83;26697;-76
2021/07/05 00:41:36;;;;;;;15.43;12.98;;;;;;;18.03;87.71;100100.60;1660051;83;26669;-76
2021/07/05 00:44:03;;;;;;;14.23;12.20;;;;;;;18.03;87.90;100101.96;1703902;83;26543;-76
2021/07/05 00:46:30;;;;;;;17.85;15.08;;;;;;;18.03;88.03;100100.60;1673649;83;25819;-76
2021/07/05 00:48:57;;;;;;;19.07;15.95;;;;;;;18.04;88.07;100095.48;1649582;83;27672;-76
2021/07/05 00:51:25;;;;;;;16.73;14.85;;;;;;;18.06;88.20;100094.17;1683441;83;26005;-76
2021/07/05 00:53:54;;;;;;;17.52;14.43;;;;;;;18.07;88.18;100093.09;1703801;83;25845;-76
2021/07/05 00:56:22;;;;;;;14.53;13.13;;;;;;;18.11;88.30;100094.80;1668998;83;25967;-77
2021/07/05 00:58:50;;;;;;;15.50;13.13;;;;;;;18.12;88.34;100091.83;1650666;83;26075;-76
2021/07/05 01:01:17;;;;;;;18.92;13.78;;;;;;;18.15;88.33;100091.87;1657517;83;27620;-76
2021/07/05 01:03:45;;;;;;;14.68;13.18;;;;;;;18.14;88.23;100092.39;1685093;83;25922;-76
2021/07/05 01:06:12;;;;;;;14.58;13.08;;;;;;;18.13;88.26;100086.70;1655691;83;25936;-76
2021/07/05 01:08:39;;;;;;;19.90;13.43;;;;;;;18.14;88.28;100082.08;1644837;83;25855;-76
2021/07/05 01:11:06;;;;;;;16.95;15.15;;;;;;;18.15;88.35;100075.08;1688033;83;26660;-77
2021/07/05 01:13:33;;;;;;;18.50;15.13;;;;;;;18.16;88.29;100073.16;1703093;83;27542;-76
2021/07/05 01:16:02;;;;;;;19.50;17.40;;;;;;;18.18;88.47;100080.51;1709812;83;26552;-76
2021/07/05 01:18:29;;;;;;;21.30;16.80;;;;;;;18.19;88.47;100080.81;1641077;83;25809;-76
2021/07/05 01:25:21;;;;;;;21.57;17.65;;;;;;;18.17;88.53;100079.72;1703739;83;25755;-76
2021/07/05 01:27:49;;;;;;;20.45;16.07;;;;;;;18.15;88.74;100082.38;1703343;83;27517;-77
2021/07/05 01:30:18;;;;;;;22.85;17.80;;;;;;;18.13;88.79;100081.28;1640421;83;25788;-76
2021/07/05 01:32:47;;;;;;;23.35;19.12;;;;;;;18.12;88.87;100077.44;1665354;83;26669;-76
2021/07/05 01:35:16;;;;;;;24.63;19.60;;;;;;;18.12;88.96;100075.56;1708658;83;25830;-75
2021/07/05 01:37:44;;;;;;;21.82;16.17;;;;;;;18.11;89.00;100078.53;1671501;83;25837;-76
2021/07/05 01:40:18;;;;;;;24.15;16.77;;;;;;;18.11;89.20;100074.46;1687334;83;27540;-76
2021/07/05 01:42:43;;;;;;;20.37;15.95;;;;;;;18.10;89.20;100074.98;1678119;83;26453;-75
2021/07/05 01:45:11;;;;;;;19.20;15.88;;;;;;;18.10;89.29;100074.16;1705678;83;25839;-76
2021/07/05 01:47:38;;;;;;;18.57;14.98;;;;;;;18.10;89.25;100071.45;1643828;83;25910;-76
2021/07/05 01:50:07;;;;;;;17.40;14.28;;;;;;;18.10;89.20;100071.45;1667568;81;26543;-77
2021/07/05 01:52:34;;;;;;;17.82;14.63;;;;;;;18.10;89.14;100066.86;1706969;83;28141;-76
2021/07/05 01:55:01;;;;;;;17.85;14.43;;;;;;;18.11;89.13;100065.77;1713348;83;25861;-76
2021/07/05 01:57:29;;;;;;;21.65;14.40;;;;;;;18.14;89.18;100069.88;1655308;82;25894;-77
2021/07/05 01:59:59;;;;;;;37.93;14.15;;;;;;;18.14;89.08;100066.64;1661085;83;25842;-76
2021/07/05 02:02:27;;;;;;;25.37;12.88;;;;;;;18.13;88.75;100060.13;1698608;83;26498;-76
2021/07/05 02:04:54;;;;;;;16.77;12.30;;;;;;;18.09;88.37;100061.14;1709646;82;28316;-75
2021/07/05 02:07:22;;;;;;;23.83;12.60;;;;;;;18.06;88.20;100056.23;1666927;83;26577;-76
2021/07/05 02:09:50;;;;;;;13.10;11.65;;;;;;;18.02;88.04;100064.58;1658231;83;25938;-75
2021/07/05 02:12:17;;;;;;;13.13;11.83;;;;;;;17.99;87.85;100063.70;1676604;83;25951;-76
2021/07/05 02:14:44;;;;;;;28.73;12.93;;;;;;;17.97;87.83;100065.02;1709133;83;25905;-77
2021/07/05 02:17:12;;;;;;;24.35;12.07;;;;;;;17.94;87.87;100062.81;1654856;83;27487;-75
2021/07/05 02:19:39;;;;;;;25.25;12.73;;;;;;;17.91;87.75;100066.84;1655519;83;25803;-76
2021/07/05 02:22:08;;;;;;;63.45;12.35;;;;;;;17.89;87.70;100058.66;1705102;83;25554;-75
2021/07/05 02:24:36;;;;;;;32.83;11.38;;;;;;;17.87;87.64;100062.98;1704866;83;26395;-76
2021/07/05 02:27:04;;;;;;;38.17;11.20;;;;;;;17.85;87.57;100060.23;1658087;83;26035;-76
2021/07/05 02:29:31;;;;;;;36.35;11.50;;;;;;;17.81;87.52;100060.44;1685205;82;27529;-76
2021/07/05 02:31:59;;;;;;;27.50;11.83;;;;;;;17.78;87.60;100059.04;1703822;83;26050;-76
2021/07/05 02:34:26;;;;;;;50.08;10.85;;;;;;;17.78;87.61;100066.34;1705426;83;25308;-76
2021/07/05 02:36:53;;;;;;;65.87;10.78;;;;;;;17.74;87.45;100066.02;1663127;83;25830;-76
2021/07/05 02:39:20;;;;;;;12.88;10.50;;;;;;;17.71;87.37;100067.33;1675778;82;25822;-76
2021/07/05 02:41:47;;;;;;;14.23;12.13;;;;;;;17.68;87.34;100070.52;1725375;82;28274;-77
2021/07/05 02:44:15;;;;;;;91.78;52.58;;;;;;;17.65;87.42;100070.19;1729940;82;25821;-76
2021/07/05 02:46:42;;;;;;;62.58;39.50;;;;;;;17.63;87.59;100071.80;1649189;83;25819;-77
2021/07/05 02:49:10;;;;;;;99.40;55.28;;;;;;;17.63;87.80;100074.52;1653903;83;26590;-76
2021/07/05 02:51:37;;;;;;;54.25;35.23;;;;;;;17.63;87.79;100073.68;1702838;82;25899;-76
2021/07/05 02:54:05;;;;;;;40.95;27.75;;;;;;;17.63;87.87;100078.58;1727936;81;28352;-77
2021/07/05 02:56:33;;;;;;;45.05;30.05;;;;;;;17.64;87.92;100072.07;1667441;83;25911;-76
2021/07/05 02:59:00;;;;;;;41.85;28.45;;;;;;;17.63;87.94;100073.16;1646816;83;26564;-76
2021/07/05 03:01:27;;;;;;;35.45;25.35;;;;;;;17.63;87.91;100073.16;1718130;83;25860;-76
2021/07/05 03:03:54;;;;;;;31.35;21.95;;;;;;;17.63;87.97;100067.73;1715186;82;25828;-76
2021/07/05 03:06:22;;;;;;;25.55;18.25;;;;;;;17.62;87.91;100066.08;1639806;83;27477;-77
2021/07/05 03:08:49;;;;;;;20.40;16.55;;;;;;;17.64;87.97;100075.34;1682287;83;25811;-76
2021/07/05 03:11:17;;;;;;;18.75;15.23;;;;;;;17.63;87.89;100085.34;1684719;83;26488;-76
2021/07/05 03:13:44;;;;;;;20.23;15.13;;;;;;;17.62;87.89;100081.53;1708833;83;26622;-76
2021/07/05 03:16:11;;;;;;;18.05;13.98;;;;;;;17.63;87.81;100087.22;1662266;82;25842;-76
2021/07/05 03:18:38;;;;;;;14.07;12.58;;;;;;;17.63;87.87;100089.41;1659907;83;27638;-76
2021/07/05 03:21:05;;;;;;;13.55;12.25;;;;;;;17.64;88.08;100090.23;1702346;83;25989;-75
2021/07/05 03:23:32;;;;;;;13.50;12.15;;;;;;;17.67;88.36;100089.20;1699956;83;25889;-76
2021/07/05 03:26:00;;;;;;;17.17;13.80;;;;;;;17.70;88.66;100095.50;1663516;83;25830;-76
2021/07/05 03:28:27;;;;;;;14.75;12.30;;;;;;;17.75;88.93;100089.88;1629206;83;26534;-76
2021/07/05 03:30:55;;;;;;;14.93;13.35;;;;;;;17.77;89.10;100084.47;1702677;83;27485;-76
2021/07/05 03:33:23;;;;;;;14.83;13.20;;;;;;;17.83;89.33;100084.87;1685639;83;25841;-76
2021/07/05 03:35:50;;;;;;;14.05;12.63;;;;;;;17.87;89.53;100083.30;1644944;83;25969;-76
2021/07/05 03:38:18;;;;;;;14.50;12.80;;;;;;;17.91;89.56;100089.04;1677565;83;25928;-75
2021/07/05 03:40:47;;;;;;;17.17;12.93;;;;;;;17.94;89.77;100089.91;1683915;83;26650;-76
2021/07/05 03:43:15;;;;;;;13.90;12.45;;;;;;;17.96;89.77;100100.80;1701669;83;28147;-76
2021/07/05 03:45:42;;;;;;;16.30;14.60;;;;;;;17.97;89.69;100102.42;1680968;83;25865;-76
2021/07/05 03:48:10;;;;;;;14.10;12.70;;;;;;;17.99;89.88;100103.52;1639322;83;25738;-76
2021/07/05 03:50:38;;;;;;;14.80;13.40;;;;;;;18.00;89.86;100106.01;1708014;83;25873;-76
2021/07/05 03:53:06;;;;;;;15.85;13.30;;;;;;;18.03;89.92;100100.08;1706112;83;25783;-75
2021/07/05 03:55:34;;;;;;;14.95;13.53;;;;;;;18.05;90.02;100102.00;1648416;81;28289;-76
2021/07/05 03:58:03;;;;;;;14.85;13.35;;;;;;;18.09;90.08;100105.06;1644714;81;25640;-77
2021/07/05 04:00:35;;;;;;;15.72;13.40;;;;;;;18.10;90.15;100110.23;1702414;81;25646;-76
2021/07/05 04:03:02;;;;;;;15.50;14.00;;;;;;;18.15;90.30;100109.48;1709382;83;25873;-76
2021/07/05 04:05:30;;;;;;;14.98;13.35;;;;;;;18.16;90.37;100109.23;1638798;83;26599;-77
2021/07/05 04:07:57;;;;;;;15.98;13.93;;;;;;;18.19;90.33;100112.81;1632899;83;27500;-77
2021/07/05 04:10:25;;;;;;;15.70;14.20;;;;;;;18.21;90.40;100115.27;1706208;83;25880;-75
2021/07/05 04:12:52;;;;;;;17.05;15.05;;;;;;;18.24;90.42;100113.43;1689148;83;25847;-76
2021/07/05 04:15:20;;;;;;;16.87;14.95;;;;;;;18.26;90.51;100114.80;1648248;83;25955;-76
2021/07/05 04:17:47;;;;;;;16.62;14.90;;;;;;;18.28;90.70;100118.64;1659252;84;25921;-76
2021/07/05 04:20:18;;;;;;;16.60;14.63;;;;;;;18.31;90.84;100113.53;1686505;83;27622;-76
2021/07/05 04:22:46;;;;;;;19.65;16.87;;;;;;;18.38;90.97;100115.54;1704593;83;26768;-76
2021/07/05 04:25:15;;;;;;;18.40;15.13;;;;;;;18.41;91.10;100116.94;1643042;83;26063;-76
2021/07/05 04:27:43;;;;;;;18.48;16.15;;;;;;;18.47;91.17;100110.55;1659157;84;26585;-76
2021/07/05 04:30:12;;;;;;;23.18;15.98;;;;;;;18.54;91.34;100113.08;1709306;83;26273;-76
2021/07/05 04:32:40;;;;;;;21.15;16.40;;;;;;;18.59;91.48;100113.95;1686300;83;27527;-76
2021/07/05 04:35:12;;;;;;;16.95;15.15;;;;;;;18.65;91.45;100119.73;1650181;83;26801;-76
2021/07/05 04:37:41;;;;;;;17.90;15.78;;;;;;;18.70;91.44;100123.88;1668570;82;26323;-76
2021/07/05 04:40:12;;;;;;;23.40;16.82;;;;;;;18.75;91.62;100126.67;1708923;83;26497;-76
2021/07/05 04:42:40;;;;;;;24.32;18.15;;;;;;;18.80;91.67;100125.36;1709570;83;25991;-77
2021/07/05 04:45:10;;;;;;;27.52;16.45;;;;;;;18.82;91.55;100123.22;1641500;83;27664;-77
2021/07/05 04:47:37;;;;;;;22.10;17.12;;;;;;;18.86;91.66;100122.20;1668562;83;25899;-77
2021/07/05 04:50:09;;;;;;;20.35;17.12;;;;;;;18.92;91.80;100130.68;1702815;83;25743;-77
2021/07/05 04:52:37;;;;;;;22.00;17.98;;;;;;;18.94;91.63;100125.29;1705085;83;25850;-76
2021/07/05 04:55:08;;;;;;;23.10;18.10;;;;;;;19.00;91.67;100127.52;1661726;83;25876;-75
2021/07/05 04:57:36;;;;;;;21.15;17.50;;;;;;;19.03;91.70;100123.75;1657962;83;27434;-76
2021/07/05 05:00:11;;;;;;;21.70;18.05;;;;;;;19.08;91.84;100131.97;1704877;83;26523;-76
2021/07/05 05:02:38;;;;;;;20.30;16.52;;;;;;;19.11;91.75;100127.40;1713502;83;25863;-76
2021/07/05 05:05:07;;;;;;;24.10;18.35;;;;;;;19.17;91.89;100125.02;1651564;83;26159;-76
2021/07/05 05:07:36;;;;;;;21.37;16.82;;;;;;;19.23;91.82;100123.17;1657642;83;25864;-76
2021/07/05 05:10:13;;;;;;;22.45;18.32;;;;;;;19.26;91.72;100118.59;1727741;82;27439;-76
2021/07/05 05:12:40;;;;;;;21.25;17.32;;;;;;;19.29;91.71;100119.43;1702914;83;25801;-76
2021/07/05 05:15:09;;;;;;;23.87;18.82;;;;;;;19.32;91.55;100113.50;1619933;83;26497;-76
2021/07/05 05:17:37;;;;;;;22.70;18.35;;;;;;;19.34;91.42;100114.09;1640153;83;26269;-76
2021/07/05 05:20:08;;;;;;;24.80;18.05;;;;;;;19.38;91.49;100103.53;1669403;83;25837;-76
2021/07/05 05:22:35;;;;;;;;;;;;;;;19.46;91.60;100105.25;1666334;83;28265;-76
2021/07/05 05:25:04;;;;;;;20.48;16.12;;;;;;;19.49;91.18;100097.13;1684478;83;26485;-76
2021/07/05 05:27:31;;;;;;;23.25;17.37;;;;;;;19.48;91.22;100103.66;1682998;83;26538;-76
2021/07/05 05:29:58;;;;;;;23.20;17.98;;;;;;;19.49;91.03;100101.20;1662885;83;25870;-76
2021/07/05 05:32:26;;;;;;;19.45;17.40;;;;;;;19.50;91.14;100099.61;1649598;83;25848;-76
2021/07/05 05:34:53;;;;;;;21.05;17.92;;;;;;;19.53;91.18;100097.72;1684910;83;27477;-76
2021/07/05 05:37:20;;;;;;;21.45;18.02;;;;;;;19.56;91.02;100096.39;1704360;83;25927;-76
2021/07/05 05:39:47;;;;;;;19.52;17.52;;;;;;;19.61;91.35;100097.25;1629796;83;25725;-77
2021/07/05 05:42:14;;;;;;;19.90;17.42;;;;;;;19.72;91.81;100094.08;1686965;83;25988;-76
2021/07/05 05:44:44;;;;;;;20.72;17.42;;;;;;;19.78;91.23;100089.79;1697246;83;26139;-76
2021/07/05 05:47:09;;;;;;;20.90;17.92;;;;;;;19.85;91.24;100089.58;1730058;82;28317;-76
2021/07/05 05:49:36;;;;;;;19.48;17.42;;;;;;;19.91;91.08;100093.44;1695695;83;26052;-76
2021/07/05 05:52:04;;;;;;;23.77;17.87;;;;;;;19.99;91.06;100092.16;1687155;83;26508;-76
2021/07/05 05:54:31;;;;;;;20.40;18.07;;;;;;;20.02;90.43;100087.53;1677047;83;25993;-76
2021/07/05 05:56:58;;;;;;;19.37;17.37;;;;;;;20.00;90.22;100090.52;1709229;82;25879;-76
2021/07/05 05:59:25;;;;;;;20.75;17.05;;;;;;;20.04;90.46;100088.09;1662410;83;27485;-76
2021/07/05 06:01:52;;;;;;;20.27;18.05;;;;;;;20.13;90.52;100086.53;1693971;82;25697;-76
2021/07/05 06:04:20;;;;;;;18.23;16.07;;;;;;;20.21;90.65;100087.43;1693376;83;25862;-76
2021/07/05 06:06:48;;;;;;;18.62;15.78;;;;;;;20.27;90.90;100091.02;1716166;82;25775;-77
2021/07/05 06:09:15;;;;;;;19.57;15.03;;;;;;;20.33;90.63;100089.97;1665327;83;26509;-76
2021/07/05 06:11:42;;;;;;;16.93;15.15;;;;;;;20.43;90.69;100085.41;1676961;83;28353;-77
2021/07/05 06:14:09;;;;;;;19.45;13.78;;;;;;;20.59;90.81;100093.91;1669106;83;25668;-75
2021/07/05 06:16:37;;;;;;;15.58;13.83;;;;;;;20.72;90.14;100089.92;1703476;83;26170;-76
2021/07/05 06:19:04;;;;;;;14.73;13.22;;;;;;;20.81;89.81;100095.11;1680282;83;25830;-76
2021/07/05 06:21:33;;;;;;;16.30;14.60;;;;;;;20.83;89.27;100098.39;1670013;82;26257;-76
2021/07/05 06:24:00;;;;;;;18.60;14.07;;;;;;;20.83;89.17;100103.83;1692753;83;28319;-76
2021/07/05 06:26:27;;;;;;;23.55;14.87;;;;;;;20.79;88.61;100104.09;1713163;82;25879;-76
2021/07/05 06:28:54;;;;;;;17.60;15.72;;;;;;;20.78;88.76;100106.55;1639797;83;25390;-76
2021/07/05 06:31:21;;;;;;;20.32;15.08;;;;;;;20.82;89.10;100110.38;1685638;82;26114;-76
2021/07/05 06:33:48;;;;;;;18.90;15.20;;;;;;;20.89;89.24;100110.96;1685707;83;25837;-76
2021/07/05 06:36:16;;;;;;;16.90;15.10;;;;;;;20.96;89.37;100110.69;1690284;83;27610;-76
2021/07/05 06:38:44;;;;;;;17.30;14.07;;;;;;;21.08;89.36;100114.05;1669981;83;26588;-76
2021/07/05 06:41:11;;;;;;;17.55;14.00;;;;;;;21.22;89.35;100111.09;1684079;83;26566;-76
2021/07/05 06:43:38;;;;;;;16.05;14.40;;;;;;;21.30;88.93;100111.39;1676277;83;26454;-76
2021/07/05 06:46:05;;;;;;;14.20;12.73;;;;;;;21.42;88.79;100104.34;1712556;83;25886;-76
2021/07/05 06:48:32;;;;;;;17.23;14.63;;;;;;;21.56;88.64;100104.62;1686327;82;27457;-76
2021/07/05 06:50:59;;;;;;;15.50;13.85;;;;;;;21.53;87.36;100110.89;1662606;83;26005;-76
2021/07/05 06:53:26;;;;;;;15.10;12.63;;;;;;;21.49;87.33;100108.44;1699671;82;26493;-77
2021/07/05 06:55:53;;;;;;;15.13;12.85;;;;;;;21.59;87.18;100104.92;1677229;83;26344;-76
2021/07/05 06:58:20;;;;;;;14.68;11.90;;;;;;;21.67;86.24;100107.10;1657356;83;25571;-76
2021/07/05 07:00:48;;;;;;;12.65;11.03;;;;;;;21.70;86.01;100106.58;1676981;82;28387;-76
2021/07/05 07:03:15;;;;;;;14.63;11.50;;;;;;;21.83;86.73;100110.70;1689837;82;25996;-76
2021/07/05 07:05:42;;;;;;;16.25;12.28;;;;;;;21.98;86.34;100109.34;1705426;83;25947;-76
2021/07/05 07:08:10;;;;;;;12.75;11.43;;;;;;;22.06;86.16;100106.06;1673818;83;26355;-76
2021/07/05 07:10:37;;;;;;;11.53;9.63;;;;;;;22.09;85.73;100113.70;1681353;83;25969;-76
2021/07/05 07:13:04;;;;;;;12.53;9.98;;;;;;;22.10;85.11;100109.33;1673716;83;28179;-77
2021/07/05 07:15:35;;;;;;;12.05;10.95;;;;;;;22.16;84.90;100117.78;1710601;82;26581;-76
2021/07/05 07:18:09;;;;;;;15.55;12.03;;;;;;;22.21;85.19;100115.59;1664623;83;25963;-76
2021/07/05 07:20:33;;;;;;;12.45;11.15;;;;;;;22.26;84.74;100115.03;1690303;82;26016;-76
2021/07/05 07:23:00;;;;;;;19.00;13.70;;;;;;;22.29;84.68;100123.22;1708214;82;25969;-76
2021/07/05 07:25:27;;;;;;;14.50;13.00;;;;;;;22.39;84.48;100122.41;1708411;82;28356;-76
2021/07/05 07:27:54;;;;;;;13.03;11.63;;;;;;;22.53;84.52;100120.72;1662681;83;26467;-76
2021/07/05 07:30:22;;;;;;;14.75;11.88;;;;;;;22.72;83.93;100117.16;1690378;82;26645;-77
2021/07/05 07:32:49;;;;;;;12.50;11.20;;;;;;;22.86;82.88;100124.22;1705043;83;25955;-76
2021/07/05 07:35:18;;;;;;;11.43;10.20;;;;;;;22.97;83.57;100127.16;1669298;83;26572;-77
2021/07/05 07:37:49;;;;;;;10.98;8.98;;;;;;;22.99;82.57;100120.87;1641009;83;27748;-76
2021/07/05 07:40:22;;;;;;;;;;;;;;;22.91;81.12;100126.38;1714096;83;25889;-77
2021/07/05 07:42:48;;;;;;;10.40;8.75;;;;;;;22.77;80.28;100113.05;1708770;83;25834;-77
2021/07/05 07:45:18;;;;;;;8.18;7.37;;;;;;;22.73;80.98;100116.05;1711771;83;26302;-76
2021/07/05 07:47:46;;;;;;;8.40;7.10;;;;;;;22.83;81.66;100108.38;1696026;83;25935;-77
2021/07/05 07:50:16;;;;;;;9.43;7.10;;;;;;;22.93;80.96;100107.79;1687256;82;27547;-76
2021/07/05 07:52:43;;;;;;;8.38;7.53;;;;;;;23.08;81.13;100110.17;1690434;83;25828;-77
2021/07/05 07:55:13;;;;;;;9.43;8.43;;;;;;;23.16;80.06;100113.14;1657504;83;25818;-76
2021/07/05 07:57:41;;;;;;;9.33;8.40;;;;;;;23.24;80.79;100111.21;1670619;82;25785;-76
2021/07/05 08:00:12;;;;;;;10.13;9.05;;;;;;;23.39;80.52;100120.72;1671224;83;25852;-76
2021/07/05 08:02:44;;;;;;;9.10;7.53;;;;;;;23.45;79.01;100120.95;1712364;82;27535;-76
2021/07/05 08:05:11;;;;;;;8.70;7.90;;;;;;;23.48;79.14;100119.58;1676496;83;25915;-75
2021/07/05 08:07:41;;;;;;;10.95;8.73;;;;;;;23.43;78.74;100116.33;1644927;83;26409;-75
2021/07/05 08:10:12;;;;;;;7.85;7.15;;;;;;;23.47;78.81;100115.20;1634989;82;25940;-76
2021/07/05 08:12:39;;;;;;;10.82;8.03;;;;;;;23.62;79.33;100113.73;1711034;82;25794;-76
2021/07/05 08:15:08;;;;;;;9.70;8.68;;;;;;;23.72;79.11;100104.91;1682391;82;27550;-76
2021/07/05 08:17:35;;;;;;;9.60;8.70;;;;;;;23.83;78.24;100101.54;1669164;82;26535;-76
2021/07/05 08:20:05;;;;;;;13.25;10.00;;;;;;;23.76;77.63;100095.56;1671304;82;25941;-76
2021/07/05 08:22:34;;;;;;;9.83;8.03;;;;;;;23.67;77.58;100108.23;1710409;82;25848;-76
2021/07/05 08:25:06;;;;;;;11.40;8.80;;;;;;;23.70;77.68;100107.66;1681680;82;26203;-77
2021/07/05 08:27:34;;;;;;;9.10;7.45;;;;;;;23.78;77.29;100097.47;1650681;82;27483;-76
2021/07/05 08:30:04;;;;;;;12.53;10.65;;;;;;;23.82;76.21;100093.63;1668771;82;25906;-76
2021/07/05 08:32:31;;;;;;;10.57;8.23;;;;;;;23.83;75.75;100096.61;1710211;82;25703;-76
2021/07/05 08:34:58;;;;;;;11.85;8.83;;;;;;;23.91;77.36;100100.92;1705139;82;26100;-76
2021/07/05 08:37:26;;;;;;;8.78;7.87;;;;;;;24.05;76.60;100095.10;1669917;82;25855;-77
2021/07/05 08:39:53;;;;;;;9.23;7.22;;;;;;;24.14;74.75;100097.48;1690411;82;28323;-76
2021/07/05 08:42:26;;;;;;;8.48;7.58;;;;;;;24.13;75.33;100099.95;1708462;81;25798;-77
2021/07/05 08:44:54;;;;;;;8.85;7.92;;;;;;;24.17;74.95;100102.38;1679618;82;25927;-76
2021/07/05 08:47:23;;;;;;;11.53;8.30;;;;;;;24.22;74.81;100100.97;1675156;83;25820;-76
2021/07/05 08:49:50;;;;;;;9.03;7.35;;;;;;;24.22;74.47;100099.59;1688456;83;25823;-75
2021/07/05 08:52:17;;;;;;;8.28;7.10;;;;;;;24.26;74.27;100091.61;1714525;83;28216;-76
2021/07/05 08:54:44;;;;;;;10.30;7.45;;;;;;;24.32;74.51;100091.82;1671224;82;25863;-76
2021/07/05 08:57:57;;;;;;;7.28;6.55;;;;;;;24.31;73.42;100090.20;1661893;83;25358;-76
2021/07/05 08:59:40;;;;;;;7.20;6.50;;;;;;;24.23;73.12;100087.53;1670343;82;26077;-77
2021/07/05 09:02:10;;;;;;;7.67;6.87;;;;;;;24.18;72.37;100079.94;1707311;82;26258;-75
2021/07/05 09:04:37;;;;;;;9.83;8.23;;;;;;;24.13;73.17;100078.05;1679881;83;27537;-76
2021/07/05 09:07:08;;;;;;;10.25;8.48;;;;;;;24.19;73.46;100074.70;1646275;82;25969;-75
2021/07/05 09:09:35;;;;;;;10.15;8.23;;;;;;;24.30;72.96;100070.77;1705427;83;25917;-76
2021/07/05 09:12:06;;;;;;;9.50;7.83;;;;;;;24.36;72.14;100069.05;1712041;83;26565;-77
2021/07/05 09:14:35;;;;;;;9.95;7.50;;;;;;;24.48;73.26;100072.23;1674257;82;25394;-76
2021/07/05 09:17:10;;;;;;;8.73;7.75;;;;;;;24.62;73.03;100075.06;1672284;82;28209;-76
2021/07/05 09:19:39;;;;;;;9.18;7.40;;;;;;;24.73;73.04;100075.22;1710436;82;26548;-76
2021/07/05 09:22:09;;;;;;;8.38;7.58;;;;;;;24.70;72.56;100075.00;1712143;82;25903;-77
2021/07/05 09:24:43;;;;;;;8.83;7.33;;;;;;;24.64;71.53;100067.92;1675109;82;25865;-76
2021/07/05 09:27:24;;;;;;;7.28;6.58;;;;;;;24.57;70.99;100069.67;1701260;83;25649;-76
2021/07/05 09:29:52;;;;;;;6.95;6.28;;;;;;;24.61;71.58;100058.94;1705696;83;27918;-76
2021/07/05 09:32:29;;;;;;;6.45;5.85;;;;;;;24.70;71.33;100069.52;1705180;83;26539;-76
2021/07/05 09:34:58;;;;;;;6.22;5.45;;;;;;;24.66;70.00;100067.89;1672667;83;25826;-76
2021/07/05 09:37:31;;;;;;;5.50;5.00;;;;;;;24.57;69.31;100065.56;1681516;83;26564;-76
2021/07/05 09:40:10;;;;;;;6.05;5.42;;;;;;;24.56;69.94;100062.55;1741614;82;25792;-77
2021/07/05 09:42:51;;;;;;;6.05;5.45;;;;;;;24.59;69.22;100061.16;1716369;82;27610;-76
2021/07/05 09:45:32;;;;;;;10.13;6.35;;;;;;;24.51;69.28;100059.31;1669275;83;26047;-76
2021/07/05 09:48:24;;;;;;;6.25;5.65;;;;;;;24.53;69.71;100054.91;1676208;83;25841;-77
2021/07/05 09:51:02;;;;;;;6.28;5.53;;;;;;;24.67;70.01;100057.77;1648871;86;26461;-77
2021/07/05 09:53:35;;;;;;;8.28;6.12;;;;;;;24.84;70.40;100056.76;1742484;80;25866;-77
2021/07/05 09:56:25;;;;;;;7.62;6.10;;;;;;;24.99;70.41;100060.13;1717802;80;28129;-76
2021/07/05 09:58:56;;;;;;;8.23;5.00;;;;;;;25.12;70.93;100055.84;1691840;80;25965;-77
2021/07/05 10:01:43;;;;;;;4.40;3.98;;;;;;;25.23;69.70;100051.84;1775214;79;25523;-76
2021/07/05 10:04:23;;;;;;;5.28;3.70;;;;;;;25.33;67.32;100058.55;1770366;80;26458;-76
2021/07/05 10:06:47;;;;;;;5.20;3.47;;;;;;;25.33;65.72;100055.80;1715703;80;26029;-77
2021/07/05 10:09:19;;;;;;;4.08;3.30;;;;;;;25.39;65.06;100062.02;1654208;83;28234;-76
2021/07/05 10:11:46;;;;;;;5.97;4.15;;;;;;;25.43;65.16;100061.73;1709341;83;25794;-77
2021/07/05 10:14:21;;;;;;;5.53;4.17;;;;;;;25.57;65.35;100067.55;1706406;83;25817;-76
2021/07/05 10:16:50;;;;;;;4.50;3.83;;;;;;;25.66;64.20;100061.61;1708045;83;26433;-77
2021/07/05 10:19:18;;;;;;;7.05;4.78;;;;;;;25.76;65.93;100065.59;1663606;83;25967;-76
2021/07/05 10:21:45;;;;;;;3.83;3.52;;;;;;;25.88;65.71;100067.30;1702952;83;27562;-76
2021/07/05 10:24:12;;;;;;;5.80;3.60;;;;;;;25.96;64.75;100069.92;1706019;83;25754;-77
2021/07/05 10:26:41;;;;;;;5.28;4.00;;;;;;;26.06;63.04;100075.78;1658353;83;25868;-77
2021/07/05 10:29:10;;;;;;;4.33;3.90;;;;;;;26.11;62.96;100068.29;1648918;83;25903;-76
2021/07/05 10:31:39;;;;;;;4.72;3.77;;;;;;;26.16;63.54;100073.70;1699349;82;25860;-77
2021/07/05 10:34:06;;;;;;;7.95;4.47;;;;;;;26.33;63.44;100079.42;1698162;82;27707;-77
2021/07/05 10:36:38;;;;;;;4.10;3.80;;;;;;;26.31;62.44;100087.16;1652805;82;26428;-76
2021/07/05 10:39:09;;;;;;;4.58;4.28;;;;;;;26.30;64.30;100082.80;1686396;82;25839;-76
2021/07/05 10:41:38;;;;;;;;;;;;;;;26.33;63.26;100071.73;1718749;82;25905;-77
2021/07/05 10:44:09;;;;;;;5.05;3.70;;;;;;;26.34;63.30;100070.64;1694998;82;25918;-76
2021/07/05 10:46:48;;;;;;;6.65;5.15;;;;;;;26.23;63.76;100070.56;1715527;82;27467;-76
2021/07/05 10:49:36;;;;;;;21.65;8.78;;;;;;;26.13;62.68;100071.58;1674262;82;25946;-76
2021/07/05 10:52:07;;;;;;;6.95;5.72;;;;;;;26.08;62.39;100076.30;1707580;83;25799;-77
2021/07/05 10:54:56;;;;;;;12.30;5.50;;;;;;;26.06;62.79;100077.16;1654516;83;26567;-79
2021/07/05 10:57:35;;;;;;;6.97;5.33;;;;;;;25.96;62.25;100078.16;1679151;83;26673;-79
2021/07/05 11:00:16;;;;;;;5.33;4.80;;;;;;;25.82;62.02;100078.10;1687502;81;27545;-78
2021/07/05 11:02:44;;;;;;;4.65;4.20;;;;;;;25.85;63.06;100078.86;1702836;83;25744;-77
2021/07/05 11:05:44;;;;;;;;;;;;;;;25.95;63.17;100068.28;1686704;83;25834;-78
2021/07/05 11:08:43;;;;;;;5.80;4.30;;;;;;;26.11;63.42;100071.62;1651654;83;26406;-78
2021/07/05 11:11:28;;;;;;;5.33;4.10;;;;;;;26.21;62.08;100075.55;1700801;82;25868;-78
2021/07/05 11:14:34;;;;;;;4.87;3.92;;;;;;;26.35;61.44;100068.95;1733426;82;27715;-78
2021/07/05 11:17:23;;;;;;;5.35;4.95;;;;;;;26.49;61.07;100068.98;1654773;83;25885;-78
2021/07/05 11:19:56;;;;;;;5.37;4.85;;;;;;;26.40;60.20;100060.63;1679421;83;26450;-77
2021/07/05 11:22:36;;;;;;;5.83;5.33;;;;;;;26.47;60.86;100061.60;1689885;83;26484;-78
2021/07/05 11:25:25;;;;;;;6.47;5.70;;;;;;;26.59;59.91;100050.91;1701757;83;25781;-78
2021/07/05 11:28:01;;;;;;;6.28;4.95;;;;;;;26.66;60.18;100058.20;1685593;83;28190;-78
2021/07/05 11:30:41;;;;;;;7.45;5.95;;;;;;;26.79;59.74;100056.59;1669587;83;25864;-78